sensor_id;sensor_type;location;lat;lon;timestamp;temperature;humidity
43987;DHT22;29650;47.378;8.300;2022-09-03T00:02:21;17.00;99.90
43987;DHT22;29650;47.378;8.300;2022-09-03T00:04:55;16.90;99.90
43987;DHT22;29650;47.378;8.300;2022-09-03T00:07:30;16.80;99.90
43987;DHT22;29650;47.378;8.300;2022-09-03T00:10:08;16.80;99.90
43987;DHT22;29650;47.378;8.300;2022-09-03T00:12:39;16.90;99.90
43987;DHT22;29650;47.378;8.300;2022-09-03T00:15:09;16.90;99.90
43987;DHT22;29650;47.378;8.300;2022-09-03T00:17:40;16.80;99.90
43987;DHT22;29650;47.378;8.300;2022-09-03T00:20:11;16.90;99.90
43987;DHT22;29650;47.378;8.300;2022-09-03T00:22:41;17.00;99.90
43987;DHT22;29650;47.378;8.300;2022-09-03T00:25:15;17.00;99.90
43987;DHT22;29650;47.378;8.300;2022-09-03T00:27:45;17.10;99.90
43987;DHT22;29650;47.378;8.300;2022-09-03T00:30:16;17.10;99.90
43987;DHT22;29650;47.378;8.300;2022-09-03T00:32:46;17.20;99.90
43987;DHT22;29650;47.378;8.300;2022-09-03T00:35:17;17.20;99.90
43987;DHT22;29650;47.378;8.300;2022-09-03T00:37:46;17.30;99.90
43987;DHT22;29650;47.378;8.300;2022-09-03T00:40:27;17.20;99.90
43987;DHT22;29650;47.378;8.300;2022-09-03T00:43:03;17.10;99.90
43987;DHT22;29650;47.378;8.300;2022-09-03T00:45:38;17.20;99.90
43987;DHT22;29650;47.378;8.300;2022-09-03T00:48:15;17.00;99.90
43987;DHT22;29650;47.378;8.300;2022-09-03T00:51:01;17.00;99.90
43987;DHT22;29650;47.378;8.300;2022-09-03T00:53:34;17.10;99.90
43987;DHT22;29650;47.378;8.300;2022-09-03T00:56:13;17.00;99.90
43987;DHT22;29650;47.378;8.300;2022-09-03T00:58:58;16.80;99.90
43987;DHT22;29650;47.378;8.300;2022-09-03T01:01:33;16.90;99.90
43987;DHT22;29650;47.378;8.300;2022-09-03T01:04:10;16.90;99.90
43987;DHT22;29650;47.378;8.300;2022-09-03T01:06:52;16.90;99.90
43987;DHT22;29650;47.378;8.300;2022-09-03T01:09:31;17.00;99.90
43987;DHT22;29650;47.378;8.300;2022-09-03T01:12:06;17.00;99.90
43987;DHT22;29650;47.378;8.300;2022-09-03T01:14:45;17.10;99.90
43987;DHT22;29650;47.378;8.300;2022-09-03T01:17:20;17.00;99.90
43987;DHT22;29650;47.378;8.300;2022-09-03T01:20:11;16.90;99.90
43987;DHT22;29650;47.378;8.300;2022-09-03T01:23:05;16.80;99.90
43987;DHT22;29650;47.378;8.300;2022-09-03T01:25:48;16.60;99.90
43987;DHT22;29650;47.378;8.300;2022-09-03T01:28:26;16.70;99.90
43987;DHT22;29650;47.378;8.300;2022-09-03T01:31:05;16.90;99.90
43987;DHT22;29650;47.378;8.300;2022-09-03T01:33:39;17.00;99.90
43987;DHT22;29650;47.378;8.300;2022-09-03T01:36:15;17.00;99.90
43987;DHT22;29650;47.378;8.300;2022-09-03T01:38:50;17.10;99.90
43987;DHT22;29650;47.378;8.300;2022-09-03T01:41:28;17.00;99.90
43987;DHT22;29650;47.378;8.300;2022-09-03T01:44:22;17.00;99.90
43987;DHT22;29650;47.378;8.300;2022-09-03T01:46:59;17.10;99.90
43987;DHT22;29650;47.378;8.300;2022-09-03T01:49:33;16.80;99.90
43987;DHT22;29650;47.378;8.300;2022-09-03T01:52:05;16.70;99.90
43987;DHT22;29650;47.378;8.300;2022-09-03T01:54:56;16.80;99.90
43987;DHT22;29650;47.378;8.300;2022-09-03T01:57:42;16.90;99.90
43987;DHT22;29650;47.378;8.300;2022-09-03T02:00:14;17.00;99.90
43987;DHT22;29650;47.378;8.300;2022-09-03T02:02:43;17.00;99.90
43987;DHT22;29650;47.378;8.300;2022-09-03T02:05:13;17.00;99.90
43987;DHT22;29650;47.378;8.300;2022-09-03T02:07:44;17.00;99.90
43987;DHT22;29650;47.378;8.300;2022-09-03T02:10:13;17.00;99.90
43987;DHT22;29650;47.378;8.300;2022-09-03T02:12:44;17.00;99.90
43987;DHT22;29650;47.378;8.300;2022-09-03T02:15:15;17.10;99.90
43987;DHT22;29650;47.378;8.300;2022-09-03T02:17:44;17.00;99.90
43987;DHT22;29650;47.378;8.300;2022-09-03T02:20:17;16.90;99.90
43987;DHT22;29650;47.378;8.300;2022-09-03T02:22:47;16.90;99.90
43987;DHT22;29650;47.378;8.300;2022-09-03T02:25:14;17.00;99.90
43987;DHT22;29650;47.378;8.300;2022-09-03T02:27:42;17.10;99.90
43987;DHT22;29650;47.378;8.300;2022-09-03T02:30:11;17.10;99.90
43987;DHT22;29650;47.378;8.300;2022-09-03T02:32:39;17.10;99.90
43987;DHT22;29650;47.378;8.300;2022-09-03T02:35:07;17.10;99.90
43987;DHT22;29650;47.378;8.300;2022-09-03T02:37:35;17.10;99.90
43987;DHT22;29650;47.378;8.300;2022-09-03T02:40:02;17.10;99.90
43987;DHT22;29650;47.378;8.300;2022-09-03T02:42:32;17.00;99.90
43987;DHT22;29650;47.378;8.300;2022-09-03T02:45:06;17.00;99.90
43987;DHT22;29650;47.378;8.300;2022-09-03T02:47:38;17.10;99.90
43987;DHT22;29650;47.378;8.300;2022-09-03T02:50:06;17.00;99.90
43987;DHT22;29650;47.378;8.300;2022-09-03T02:52:33;17.00;99.90
43987;DHT22;29650;47.378;8.300;2022-09-03T02:55:01;17.00;99.90
43987;DHT22;29650;47.378;8.300;2022-09-03T02:57:27;16.90;99.90
43987;DHT22;29650;47.378;8.300;2022-09-03T02:59:55;17.00;99.90
43987;DHT22;29650;47.378;8.300;2022-09-03T03:02:22;17.00;99.90
43987;DHT22;29650;47.378;8.300;2022-09-03T03:04:50;17.00;99.90
43987;DHT22;29650;47.378;8.300;2022-09-03T03:07:17;17.00;99.90
43987;DHT22;29650;47.378;8.300;2022-09-03T03:09:44;17.00;99.90
43987;DHT22;29650;47.378;8.300;2022-09-03T03:12:11;17.00;99.90
43987;DHT22;29650;47.378;8.300;2022-09-03T03:14:38;17.00;99.90
43987;DHT22;29650;47.378;8.300;2022-09-03T03:17:05;17.00;99.90
43987;DHT22;29650;47.378;8.300;2022-09-03T03:19:32;17.00;99.90
43987;DHT22;29650;47.378;8.300;2022-09-03T03:22:00;17.10;99.90
43987;DHT22;29650;47.378;8.300;2022-09-03T03:24:27;17.00;99.90
43987;DHT22;29650;47.378;8.300;2022-09-03T03:26:55;17.20;99.90
43987;DHT22;29650;47.378;8.300;2022-09-03T03:29:24;17.10;99.90
43987;DHT22;29650;47.378;8.300;2022-09-03T03:31:51;16.90;99.90
43987;DHT22;29650;47.378;8.300;2022-09-03T03:34:18;16.90;99.90
43987;DHT22;29650;47.378;8.300;2022-09-03T03:36:45;16.90;99.90
43987;DHT22;29650;47.378;8.300;2022-09-03T03:39:13;17.00;99.90
43987;DHT22;29650;47.378;8.300;2022-09-03T03:41:40;17.00;99.90
43987;DHT22;29650;47.378;8.300;2022-09-03T03:44:07;17.00;99.90
43987;DHT22;29650;47.378;8.300;2022-09-03T03:46:36;17.00;99.90
43987;DHT22;29650;47.378;8.300;2022-09-03T03:49:04;17.00;99.90
43987;DHT22;29650;47.378;8.300;2022-09-03T03:51:31;17.00;99.90
43987;DHT22;29650;47.378;8.300;2022-09-03T03:53:58;17.00;99.90
43987;DHT22;29650;47.378;8.300;2022-09-03T03:56:27;17.00;99.90
43987;DHT22;29650;47.378;8.300;2022-09-03T03:58:54;17.10;99.90
43987;DHT22;29650;47.378;8.300;2022-09-03T04:01:24;17.10;99.90
43987;DHT22;29650;47.378;8.300;2022-09-03T04:03:53;17.10;99.90
43987;DHT22;29650;47.378;8.300;2022-09-03T04:06:20;17.10;99.90
43987;DHT22;29650;47.378;8.300;2022-09-03T04:08:47;17.10;99.90
43987;DHT22;29650;47.378;8.300;2022-09-03T04:11:16;17.10;99.90
43987;DHT22;29650;47.378;8.300;2022-09-03T04:13:45;17.10;99.90
43987;DHT22;29650;47.378;8.300;2022-09-03T04:16:14;17.10;99.90
43987;DHT22;29650;47.378;8.300;2022-09-03T04:18:43;17.10;99.90
43987;DHT22;29650;47.378;8.300;2022-09-03T04:21:12;17.00;99.90
43987;DHT22;29650;47.378;8.300;2022-09-03T04:23:41;17.00;99.90
43987;DHT22;29650;47.378;8.300;2022-09-03T04:26:10;16.90;99.90
43987;DHT22;29650;47.378;8.300;2022-09-03T04:28:37;17.00;99.90
43987;DHT22;29650;47.378;8.300;2022-09-03T04:31:09;16.90;99.90
43987;DHT22;29650;47.378;8.300;2022-09-03T04:33:37;17.00;99.90
43987;DHT22;29650;47.378;8.300;2022-09-03T04:36:06;17.00;99.90
43987;DHT22;29650;47.378;8.300;2022-09-03T04:38:35;16.90;99.90
43987;DHT22;29650;47.378;8.300;2022-09-03T04:41:02;16.90;99.90
43987;DHT22;29650;47.378;8.300;2022-09-03T04:43:30;17.00;99.90
43987;DHT22;29650;47.378;8.300;2022-09-03T04:45:58;16.90;99.90
43987;DHT22;29650;47.378;8.300;2022-09-03T04:48:27;16.90;99.90
43987;DHT22;29650;47.378;8.300;2022-09-03T04:51:00;17.00;99.90
43987;DHT22;29650;47.378;8.300;2022-09-03T04:53:30;17.00;99.90
43987;DHT22;29650;47.378;8.300;2022-09-03T04:55:57;17.00;99.90
43987;DHT22;29650;47.378;8.300;2022-09-03T04:58:24;16.90;99.90
43987;DHT22;29650;47.378;8.300;2022-09-03T05:00:51;17.00;99.90
43987;DHT22;29650;47.378;8.300;2022-09-03T05:03:18;17.00;99.90
43987;DHT22;29650;47.378;8.300;2022-09-03T05:05:53;16.80;99.90
43987;DHT22;29650;47.378;8.300;2022-09-03T05:08:20;16.90;99.90
43987;DHT22;29650;47.378;8.300;2022-09-03T05:10:47;17.00;99.90
43987;DHT22;29650;47.378;8.300;2022-09-03T05:13:14;17.00;99.90
43987;DHT22;29650;47.378;8.300;2022-09-03T05:15:42;17.00;99.90
43987;DHT22;29650;47.378;8.300;2022-09-03T05:18:10;16.90;99.90
43987;DHT22;29650;47.378;8.300;2022-09-03T05:20:37;16.80;99.90
43987;DHT22;29650;47.378;8.300;2022-09-03T05:23:06;16.90;99.90
43987;DHT22;29650;47.378;8.300;2022-09-03T05:25:33;16.80;99.90
43987;DHT22;29650;47.378;8.300;2022-09-03T05:28:00;16.90;99.90
43987;DHT22;29650;47.378;8.300;2022-09-03T05:30:27;16.90;99.90
43987;DHT22;29650;47.378;8.300;2022-09-03T05:32:55;17.00;99.90
43987;DHT22;29650;47.378;8.300;2022-09-03T05:35:22;17.00;99.90
43987;DHT22;29650;47.378;8.300;2022-09-03T05:37:49;17.00;99.90
43987;DHT22;29650;47.378;8.300;2022-09-03T05:40:17;16.90;99.90
43987;DHT22;29650;47.378;8.300;2022-09-03T05:42:44;16.70;99.90
43987;DHT22;29650;47.378;8.300;2022-09-03T05:45:11;16.80;99.90
43987;DHT22;29650;47.378;8.300;2022-09-03T05:47:38;16.90;99.90
43987;DHT22;29650;47.378;8.300;2022-09-03T05:50:07;16.90;99.90
43987;DHT22;29650;47.378;8.300;2022-09-03T05:52:35;17.00;99.90
43987;DHT22;29650;47.378;8.300;2022-09-03T05:55:02;17.10;99.90
43987;DHT22;29650;47.378;8.300;2022-09-03T05:57:30;17.00;99.90
43987;DHT22;29650;47.378;8.300;2022-09-03T05:59:58;16.90;99.90
43987;DHT22;29650;47.378;8.300;2022-09-03T06:02:26;16.90;99.90
43987;DHT22;29650;47.378;8.300;2022-09-03T06:04:52;16.90;99.90
43987;DHT22;29650;47.378;8.300;2022-09-03T06:07:20;16.90;99.90
43987;DHT22;29650;47.378;8.300;2022-09-03T06:09:47;17.10;99.90
43987;DHT22;29650;47.378;8.300;2022-09-03T06:12:14;17.00;99.90
43987;DHT22;29650;47.378;8.300;2022-09-03T06:14:43;17.10;99.90
43987;DHT22;29650;47.378;8.300;2022-09-03T06:17:10;17.10;99.90
43987;DHT22;29650;47.378;8.300;2022-09-03T06:19:37;17.10;99.90
43987;DHT22;29650;47.378;8.300;2022-09-03T06:22:04;17.10;99.90
43987;DHT22;29650;47.378;8.300;2022-09-03T06:24:31;17.10;99.90
43987;DHT22;29650;47.378;8.300;2022-09-03T06:26:58;16.90;99.90
43987;DHT22;29650;47.378;8.300;2022-09-03T06:29:25;16.90;99.90
43987;DHT22;29650;47.378;8.300;2022-09-03T06:31:54;17.00;99.90
43987;DHT22;29650;47.378;8.300;2022-09-03T06:34:21;17.20;99.90
43987;DHT22;29650;47.378;8.300;2022-09-03T06:36:50;17.30;99.90
43987;DHT22;29650;47.378;8.300;2022-09-03T06:39:17;17.30;99.90
43987;DHT22;29650;47.378;8.300;2022-09-03T06:41:44;17.30;99.90
43987;DHT22;29650;47.378;8.300;2022-09-03T06:44:16;17.40;99.90
43987;DHT22;29650;47.378;8.300;2022-09-03T06:46:43;17.60;99.90
43987;DHT22;29650;47.378;8.300;2022-09-03T06:49:13;17.60;99.90
43987;DHT22;29650;47.378;8.300;2022-09-03T06:51:40;17.60;99.90
43987;DHT22;29650;47.378;8.300;2022-09-03T06:54:09;17.60;99.90
43987;DHT22;29650;47.378;8.300;2022-09-03T06:56:37;17.60;99.90
43987;DHT22;29650;47.378;8.300;2022-09-03T06:59:06;17.50;99.90
43987;DHT22;29650;47.378;8.300;2022-09-03T07:01:34;17.70;99.90
43987;DHT22;29650;47.378;8.300;2022-09-03T07:04:06;17.80;99.90
43987;DHT22;29650;47.378;8.300;2022-09-03T07:06:36;18.00;99.90
43987;DHT22;29650;47.378;8.300;2022-09-03T07:09:07;18.00;99.90
43987;DHT22;29650;47.378;8.300;2022-09-03T07:11:35;18.10;99.90
43987;DHT22;29650;47.378;8.300;2022-09-03T07:14:04;18.20;99.90
43987;DHT22;29650;47.378;8.300;2022-09-03T07:16:33;18.30;99.90
43987;DHT22;29650;47.378;8.300;2022-09-03T07:19:01;18.50;99.90
43987;DHT22;29650;47.378;8.300;2022-09-03T07:21:30;18.70;99.90
43987;DHT22;29650;47.378;8.300;2022-09-03T07:23:59;18.60;99.90
43987;DHT22;29650;47.378;8.300;2022-09-03T07:26:29;18.50;99.90
43987;DHT22;29650;47.378;8.300;2022-09-03T07:28:57;18.40;99.90
43987;DHT22;29650;47.378;8.300;2022-09-03T07:31:27;18.70;99.90
43987;DHT22;29650;47.378;8.300;2022-09-03T07:33:54;18.80;99.90
43987;DHT22;29650;47.378;8.300;2022-09-03T07:36:22;18.70;99.90
43987;DHT22;29650;47.378;8.300;2022-09-03T07:38:49;18.80;99.90
43987;DHT22;29650;47.378;8.300;2022-09-03T07:41:18;18.90;99.90
43987;DHT22;29650;47.378;8.300;2022-09-03T07:43:46;19.00;99.90
43987;DHT22;29650;47.378;8.300;2022-09-03T07:46:17;19.10;99.90
43987;DHT22;29650;47.378;8.300;2022-09-03T07:48:48;19.20;99.90
43987;DHT22;29650;47.378;8.300;2022-09-03T07:51:15;19.30;99.90
43987;DHT22;29650;47.378;8.300;2022-09-03T07:53:43;19.50;99.90
43987;DHT22;29650;47.378;8.300;2022-09-03T07:56:10;19.40;99.90
43987;DHT22;29650;47.378;8.300;2022-09-03T07:58:39;19.40;99.90
43987;DHT22;29650;47.378;8.300;2022-09-03T08:01:08;19.60;99.90
43987;DHT22;29650;47.378;8.300;2022-09-03T08:03:35;19.60;99.90
43987;DHT22;29650;47.378;8.300;2022-09-03T08:06:04;19.70;99.90
43987;DHT22;29650;47.378;8.300;2022-09-03T08:08:32;19.60;99.90
43987;DHT22;29650;47.378;8.300;2022-09-03T08:11:05;19.70;99.90
43987;DHT22;29650;47.378;8.300;2022-09-03T08:13:36;19.70;99.90
43987;DHT22;29650;47.378;8.300;2022-09-03T08:16:05;19.80;99.90
43987;DHT22;29650;47.378;8.300;2022-09-03T08:18:33;20.10;99.90
43987;DHT22;29650;47.378;8.300;2022-09-03T08:21:04;20.30;99.90
43987;DHT22;29650;47.378;8.300;2022-09-03T08:23:32;20.20;99.90
43987;DHT22;29650;47.378;8.300;2022-09-03T08:25:59;20.30;99.90
43987;DHT22;29650;47.378;8.300;2022-09-03T08:28:27;19.90;99.90
43987;DHT22;29650;47.378;8.300;2022-09-03T08:30:57;20.20;99.90
43987;DHT22;29650;47.378;8.300;2022-09-03T08:33:25;20.60;99.90
43987;DHT22;29650;47.378;8.300;2022-09-03T08:36:03;20.60;99.90
43987;DHT22;29650;47.378;8.300;2022-09-03T08:38:31;20.60;99.90
43987;DHT22;29650;47.378;8.300;2022-09-03T08:41:03;20.60;99.90
43987;DHT22;29650;47.378;8.300;2022-09-03T08:43:31;20.70;99.90
43987;DHT22;29650;47.378;8.300;2022-09-03T08:46:01;20.60;99.90
43987;DHT22;29650;47.378;8.300;2022-09-03T08:48:31;20.60;99.90
43987;DHT22;29650;47.378;8.300;2022-09-03T08:50:58;20.60;99.90
43987;DHT22;29650;47.378;8.300;2022-09-03T08:53:33;20.50;99.90
43987;DHT22;29650;47.378;8.300;2022-09-03T08:56:06;20.40;99.90
43987;DHT22;29650;47.378;8.300;2022-09-03T08:58:34;20.30;99.90
43987;DHT22;29650;47.378;8.300;2022-09-03T09:01:03;20.20;99.90
43987;DHT22;29650;47.378;8.300;2022-09-03T09:03:49;20.20;99.90
43987;DHT22;29650;47.378;8.300;2022-09-03T09:06:25;20.00;99.90
43987;DHT22;29650;47.378;8.300;2022-09-03T09:09:02;19.90;99.90
43987;DHT22;29650;47.378;8.300;2022-09-03T09:11:44;19.70;99.90
43987;DHT22;29650;47.378;8.300;2022-09-03T09:14:16;19.80;99.90
43987;DHT22;29650;47.378;8.300;2022-09-03T09:16:49;19.80;99.90
43987;DHT22;29650;47.378;8.300;2022-09-03T09:19:32;19.80;99.90
43987;DHT22;29650;47.378;8.300;2022-09-03T09:22:04;20.00;99.90
43987;DHT22;29650;47.378;8.300;2022-09-03T09:24:37;20.20;99.90
43987;DHT22;29650;47.378;8.300;2022-09-03T09:27:15;19.60;99.90
43987;DHT22;29650;47.378;8.300;2022-09-03T09:29:45;19.70;99.90
43987;DHT22;29650;47.378;8.300;2022-09-03T09:32:14;19.60;99.90
43987;DHT22;29650;47.378;8.300;2022-09-03T09:34:45;19.60;99.90
43987;DHT22;29650;47.378;8.300;2022-09-03T09:37:13;19.50;99.90
43987;DHT22;29650;47.378;8.300;2022-09-03T09:39:52;19.30;99.90
43987;DHT22;29650;47.378;8.300;2022-09-03T09:42:21;19.30;99.90
43987;DHT22;29650;47.378;8.300;2022-09-03T09:44:48;19.40;99.90
43987;DHT22;29650;47.378;8.300;2022-09-03T09:47:21;19.30;99.90
43987;DHT22;29650;47.378;8.300;2022-09-03T09:49:53;19.40;99.90
43987;DHT22;29650;47.378;8.300;2022-09-03T09:52:20;19.40;99.90
43987;DHT22;29650;47.378;8.300;2022-09-03T09:54:50;19.40;99.90
43987;DHT22;29650;47.378;8.300;2022-09-03T09:57:22;19.40;99.90
43987;DHT22;29650;47.378;8.300;2022-09-03T10:00:00;19.10;99.90
43987;DHT22;29650;47.378;8.300;2022-09-03T10:02:27;19.00;99.90
43987;DHT22;29650;47.378;8.300;2022-09-03T10:05:11;19.10;99.90
43987;DHT22;29650;47.378;8.300;2022-09-03T10:07:38;19.10;99.90
43987;DHT22;29650;47.378;8.300;2022-09-03T10:10:09;19.20;99.90
43987;DHT22;29650;47.378;8.300;2022-09-03T10:12:41;18.90;99.90
43987;DHT22;29650;47.378;8.300;2022-09-03T10:15:20;18.90;99.90
43987;DHT22;29650;47.378;8.300;2022-09-03T10:17:54;19.00;99.90
43987;DHT22;29650;47.378;8.300;2022-09-03T10:20:27;18.70;99.90
43987;DHT22;29650;47.378;8.300;2022-09-03T10:23:02;18.70;99.90
43987;DHT22;29650;47.378;8.300;2022-09-03T10:25:38;19.00;99.90
43987;DHT22;29650;47.378;8.300;2022-09-03T10:28:08;19.00;99.90
43987;DHT22;29650;47.378;8.300;2022-09-03T10:33:32;19.00;99.90
43987;DHT22;29650;47.378;8.300;2022-09-03T10:36:09;19.00;99.90
43987;DHT22;29650;47.378;8.300;2022-09-03T10:38:39;19.00;99.90
43987;DHT22;29650;47.378;8.300;2022-09-03T10:41:18;19.10;99.90
43987;DHT22;29650;47.378;8.300;2022-09-03T10:44:04;19.10;99.90
43987;DHT22;29650;47.378;8.300;2022-09-03T10:46:43;19.30;99.90
43987;DHT22;29650;47.378;8.300;2022-09-03T10:49:24;19.40;99.90
43987;DHT22;29650;47.378;8.300;2022-09-03T10:52:02;19.40;99.90
43987;DHT22;29650;47.378;8.300;2022-09-03T10:54:38;19.40;99.90
43987;DHT22;29650;47.378;8.300;2022-09-03T10:57:14;19.40;99.90
43987;DHT22;29650;47.378;8.300;2022-09-03T10:59:53;19.80;99.90
43987;DHT22;29650;47.378;8.300;2022-09-03T11:05:19;19.60;99.90
43987;DHT22;29650;47.378;8.300;2022-09-03T11:07:52;19.90;99.90
43987;DHT22;29650;47.378;8.300;2022-09-03T11:10:26;20.00;99.90
43987;DHT22;29650;47.378;8.300;2022-09-03T11:13:01;19.90;99.90
43987;DHT22;29650;47.378;8.300;2022-09-03T11:15:33;20.00;99.90
43987;DHT22;29650;47.378;8.300;2022-09-03T11:18:06;19.80;99.90
43987;DHT22;29650;47.378;8.300;2022-09-03T11:20:34;19.60;99.90
43987;DHT22;29650;47.378;8.300;2022-09-03T11:23:04;19.70;99.90
43987;DHT22;29650;47.378;8.300;2022-09-03T11:25:36;19.60;99.90
43987;DHT22;29650;47.378;8.300;2022-09-03T11:28:15;19.80;99.90
43987;DHT22;29650;47.378;8.300;2022-09-03T11:30:54;20.00;99.90
43987;DHT22;29650;47.378;8.300;2022-09-03T11:33:27;20.00;99.90
43987;DHT22;29650;47.378;8.300;2022-09-03T11:35:56;19.70;99.90
43987;DHT22;29650;47.378;8.300;2022-09-03T11:38:28;19.90;99.90
43987;DHT22;29650;47.378;8.300;2022-09-03T11:41:02;20.10;99.90
43987;DHT22;29650;47.378;8.300;2022-09-03T11:43:31;20.00;99.90
43987;DHT22;29650;47.378;8.300;2022-09-03T11:46:06;20.30;99.90
43987;DHT22;29650;47.378;8.300;2022-09-03T11:48:38;20.40;99.90
43987;DHT22;29650;47.378;8.300;2022-09-03T11:51:28;20.30;99.90
43987;DHT22;29650;47.378;8.300;2022-09-03T11:53:58;20.60;99.90
43987;DHT22;29650;47.378;8.300;2022-09-03T11:56:27;20.60;99.90
43987;DHT22;29650;47.378;8.300;2022-09-03T11:59:04;20.70;99.90
43987;DHT22;29650;47.378;8.300;2022-09-03T12:01:33;20.70;99.90
43987;DHT22;29650;47.378;8.300;2022-09-03T12:04:04;20.60;99.90
43987;DHT22;29650;47.378;8.300;2022-09-03T12:06:54;20.20;99.90
43987;DHT22;29650;47.378;8.300;2022-09-03T12:09:46;20.30;99.90
43987;DHT22;29650;47.378;8.300;2022-09-03T12:12:30;20.50;99.90
43987;DHT22;29650;47.378;8.300;2022-09-03T12:15:06;20.50;99.90
43987;DHT22;29650;47.378;8.300;2022-09-03T12:17:51;20.40;99.90
43987;DHT22;29650;47.378;8.300;2022-09-03T12:20:38;20.40;99.90
43987;DHT22;29650;47.378;8.300;2022-09-03T12:23:06;20.60;99.90
43987;DHT22;29650;47.378;8.300;2022-09-03T12:25:34;20.60;99.90
43987;DHT22;29650;47.378;8.300;2022-09-03T12:28:10;20.60;99.90
43987;DHT22;29650;47.378;8.300;2022-09-03T12:30:38;20.60;99.90
43987;DHT22;29650;47.378;8.300;2022-09-03T12:33:07;20.90;99.90
43987;DHT22;29650;47.378;8.300;2022-09-03T12:35:38;21.00;99.90
43987;DHT22;29650;47.378;8.300;2022-09-03T12:38:05;21.30;99.90
43987;DHT22;29650;47.378;8.300;2022-09-03T12:40:34;21.40;99.90
43987;DHT22;29650;47.378;8.300;2022-09-03T12:43:11;21.20;99.90
43987;DHT22;29650;47.378;8.300;2022-09-03T12:45:42;21.20;99.90
43987;DHT22;29650;47.378;8.300;2022-09-03T12:48:12;21.20;99.90
43987;DHT22;29650;47.378;8.300;2022-09-03T12:50:41;21.20;99.90
43987;DHT22;29650;47.378;8.300;2022-09-03T12:53:09;21.00;99.90
43987;DHT22;29650;47.378;8.300;2022-09-03T12:55:42;21.00;99.90
43987;DHT22;29650;47.378;8.300;2022-09-03T12:58:11;21.00;99.90
43987;DHT22;29650;47.378;8.300;2022-09-03T13:00:42;21.00;99.90
43987;DHT22;29650;47.378;8.300;2022-09-03T13:03:13;21.20;99.90
43987;DHT22;29650;47.378;8.300;2022-09-03T13:05:44;21.50;99.90
43987;DHT22;29650;47.378;8.300;2022-09-03T13:08:17;21.60;99.90
43987;DHT22;29650;47.378;8.300;2022-09-03T13:10:50;21.70;99.90
43987;DHT22;29650;47.378;8.300;2022-09-03T13:13:21;22.10;99.90
43987;DHT22;29650;47.378;8.300;2022-09-03T13:16:04;22.30;98.20
43987;DHT22;29650;47.378;8.300;2022-09-03T13:18:37;22.60;99.10
43987;DHT22;29650;47.378;8.300;2022-09-03T13:21:13;22.70;98.10
43987;DHT22;29650;47.378;8.300;2022-09-03T13:23:54;22.30;97.80
43987;DHT22;29650;47.378;8.300;2022-09-03T13:26:32;22.10;97.80
43987;DHT22;29650;47.378;8.300;2022-09-03T13:29:21;22.10;98.90
43987;DHT22;29650;47.378;8.300;2022-09-03T13:31:54;22.30;98.80
43987;DHT22;29650;47.378;8.300;2022-09-03T13:34:29;22.00;98.80
43987;DHT22;29650;47.378;8.300;2022-09-03T13:37:01;22.10;98.90
43987;DHT22;29650;47.378;8.300;2022-09-03T13:39:37;22.30;99.10
43987;DHT22;29650;47.378;8.300;2022-09-03T13:42:11;22.40;98.10
43987;DHT22;29650;47.378;8.300;2022-09-03T13:44:43;22.20;97.40
43987;DHT22;29650;47.378;8.300;2022-09-03T13:47:21;22.80;96.80
43987;DHT22;29650;47.378;8.300;2022-09-03T13:49:55;23.10;98.70
43987;DHT22;29650;47.378;8.300;2022-09-03T13:52:44;23.40;98.00
43987;DHT22;29650;47.378;8.300;2022-09-03T13:55:17;23.40;96.80
43987;DHT22;29650;47.378;8.300;2022-09-03T13:57:51;23.50;97.30
43987;DHT22;29650;47.378;8.300;2022-09-03T14:00:25;23.50;96.40
43987;DHT22;29650;47.378;8.300;2022-09-03T14:03:02;23.70;96.40
43987;DHT22;29650;47.378;8.300;2022-09-03T14:05:46;23.50;94.70
43987;DHT22;29650;47.378;8.300;2022-09-03T14:08:21;23.20;96.20
43987;DHT22;29650;47.378;8.300;2022-09-03T14:10:55;23.10;96.30
43987;DHT22;29650;47.378;8.300;2022-09-03T14:13:35;23.10;95.40
43987;DHT22;29650;47.378;8.300;2022-09-03T14:16:07;23.10;95.10
43987;DHT22;29650;47.378;8.300;2022-09-03T14:18:41;23.40;96.20
43987;DHT22;29650;47.378;8.300;2022-09-03T14:21:15;23.80;94.80
43987;DHT22;29650;47.378;8.300;2022-09-03T14:23:48;23.80;93.60
43987;DHT22;29650;47.378;8.300;2022-09-03T14:26:19;24.00;93.60
43987;DHT22;29650;47.378;8.300;2022-09-03T14:28:57;23.90;93.80
43987;DHT22;29650;47.378;8.300;2022-09-03T14:31:39;23.70;94.50
43987;DHT22;29650;47.378;8.300;2022-09-03T14:34:16;23.80;93.50
43987;DHT22;29650;47.378;8.300;2022-09-03T14:36:51;24.10;93.10
43987;DHT22;29650;47.378;8.300;2022-09-03T14:39:28;24.20;93.90
43987;DHT22;29650;47.378;8.300;2022-09-03T14:42:23;24.30;92.80
43987;DHT22;29650;47.378;8.300;2022-09-03T14:47:57;24.60;91.90
43987;DHT22;29650;47.378;8.300;2022-09-03T14:50:39;24.90;91.00
43987;DHT22;29650;47.378;8.300;2022-09-03T14:53:21;24.80;91.40
43987;DHT22;29650;47.378;8.300;2022-09-03T14:56:20;24.60;90.90
43987;DHT22;29650;47.378;8.300;2022-09-03T14:59:07;24.50;91.20
43987;DHT22;29650;47.378;8.300;2022-09-03T15:01:42;24.80;90.70
43987;DHT22;29650;47.378;8.300;2022-09-03T15:04:23;25.00;90.20
43987;DHT22;29650;47.378;8.300;2022-09-03T15:07:14;24.90;90.40
43987;DHT22;29650;47.378;8.300;2022-09-03T15:09:51;25.20;90.80
43987;DHT22;29650;47.378;8.300;2022-09-03T15:12:23;25.10;89.10
43987;DHT22;29650;47.378;8.300;2022-09-03T15:14:56;25.20;90.40
43987;DHT22;29650;47.378;8.300;2022-09-03T15:17:45;25.20;90.20
43987;DHT22;29650;47.378;8.300;2022-09-03T15:20:20;25.30;87.10
43987;DHT22;29650;47.378;8.300;2022-09-03T15:23:08;25.30;86.60
43987;DHT22;29650;47.378;8.300;2022-09-03T15:25:50;25.40;84.50
43987;DHT22;29650;47.378;8.300;2022-09-03T15:28:25;24.80;83.90
43987;DHT22;29650;47.378;8.300;2022-09-03T15:31:00;24.70;85.00
43987;DHT22;29650;47.378;8.300;2022-09-03T15:33:32;24.30;85.00
43987;DHT22;29650;47.378;8.300;2022-09-03T15:36:13;24.00;86.40
43987;DHT22;29650;47.378;8.300;2022-09-03T15:38:47;23.90;87.60
43987;DHT22;29650;47.378;8.300;2022-09-03T15:41:28;23.60;88.20
43987;DHT22;29650;47.378;8.300;2022-09-03T15:43:58;23.60;88.70
43987;DHT22;29650;47.378;8.300;2022-09-03T15:46:36;23.50;90.10
43987;DHT22;29650;47.378;8.300;2022-09-03T15:49:09;23.50;90.80
43987;DHT22;29650;47.378;8.300;2022-09-03T15:51:49;23.50;90.60
43987;DHT22;29650;47.378;8.300;2022-09-03T15:54:29;23.40;91.40
43987;DHT22;29650;47.378;8.300;2022-09-03T15:57:02;23.40;91.30
43987;DHT22;29650;47.378;8.300;2022-09-03T15:59:37;23.40;91.10
43987;DHT22;29650;47.378;8.300;2022-09-03T16:02:06;23.40;91.30
43987;DHT22;29650;47.378;8.300;2022-09-03T16:04:49;23.40;90.80
43987;DHT22;29650;47.378;8.300;2022-09-03T16:07:25;23.20;91.60
43987;DHT22;29650;47.378;8.300;2022-09-03T16:09:59;23.30;92.20
43987;DHT22;29650;47.378;8.300;2022-09-03T16:12:34;23.20;92.50